Owasco, New York
Current Conditions -  °F | °C
As of 12:35 AM on Thursday 27 Nov 2014 (Local Time) from KSYR Reporting Station
Light Snow Light Snow  
Wind Chill: 20°   Ceiling: 2300
Heat Index: 29°   Visibility: 1.7mi
Dew Point: 27°   Wind: 9mph
Humidity: 92%   Direction: 320°NW
Pressure: 29.99"   Gusts: NA
Location:  42.9235°N, 76.5525°W
Report Text: KSYR 270535Z 32008KT 1 3/4SM -SN BR FEW006 SCT016 OVC023 M02/M03 A2999 RMK AO2 P0000 T10171028
Loading
Personal Weather Stations






























Interactive Weather Map New forecast layout! Learn more

10-Day Weather Forecast

Advertisements
Track Severe Weather on mobile